createdAt,value
2022-10-20T00:04:35.556Z,14.40
2022-10-20T00:09:37.068Z,12.63
2022-10-20T00:14:38.804Z,13.55
2022-10-20T00:19:40.319Z,15.00
2022-10-20T00:24:42.224Z,11.23
2022-10-20T00:29:43.767Z,11.60
2022-10-20T00:34:45.681Z,17.40
2022-10-20T00:39:47.166Z,8.52
2022-10-20T00:44:48.607Z,14.48
2022-10-20T00:49:51.333Z,14.07
2022-10-20T00:54:52.892Z,18.02
2022-10-20T00:59:54.725Z,10.68
2022-10-20T01:04:56.379Z,14.75
2022-10-20T01:09:58.180Z,12.18
2022-10-20T01:15:09.485Z,13.75
2022-10-20T01:20:38.525Z,11.48
2022-10-20T01:25:39.945Z,12.70
2022-10-20T01:30:46.878Z,12.82
2022-10-20T01:36:14.114Z,12.82
2022-10-20T01:46:25.181Z,15.88
2022-10-20T01:51:26.739Z,11.77
2022-10-20T01:56:38.980Z,13.38
2022-10-20T02:02:04.117Z,13.10
2022-10-20T02:07:15.523Z,13.88
2022-10-20T02:12:22.625Z,12.45
2022-10-20T02:17:24.232Z,11.77
2022-10-20T02:22:26.432Z,9.13
2022-10-20T02:27:32.551Z,9.70
2022-10-20T02:32:36.654Z,9.65
2022-10-20T02:37:38.686Z,9.85
2022-10-20T02:42:40.698Z,9.68
2022-10-20T02:47:42.209Z,12.10
2022-10-20T02:52:43.726Z,13.13
2022-10-20T02:57:45.223Z,14.63
2022-10-20T03:02:47.115Z,13.85
2022-10-20T03:07:48.633Z,9.65
2022-10-20T03:12:50.173Z,12.45
2022-10-20T03:17:51.669Z,13.10
2022-10-20T03:22:53.276Z,11.40
2022-10-20T03:27:54.800Z,7.93
2022-10-20T03:32:56.363Z,9.23
2022-10-20T03:37:57.877Z,10.27
2022-10-20T03:42:59.413Z,7.60
2022-10-20T03:48:00.952Z,10.15
2022-10-20T03:53:02.447Z,8.20
2022-10-20T03:58:06.653Z,9.15
2022-10-20T04:03:08.185Z,12.50
2022-10-20T04:08:09.840Z,12.73
2022-10-20T04:13:11.387Z,8.45
2022-10-20T04:18:12.897Z,6.68
2022-10-20T04:23:14.840Z,13.10
2022-10-20T04:28:18.607Z,7.68
2022-10-20T04:33:20.127Z,7.32
2022-10-20T04:38:21.637Z,10.20
2022-10-20T04:43:23.272Z,10.25
2022-10-20T04:48:25.291Z,12.00
2022-10-20T04:53:26.861Z,9.32
2022-10-20T04:58:28.608Z,7.57
2022-10-20T05:03:30.245Z,8.15
2022-10-20T05:08:31.789Z,8.48
2022-10-20T05:13:33.657Z,8.57
2022-10-20T05:18:35.616Z,9.68
2022-10-20T05:23:39.549Z,8.48
2022-10-20T05:28:46.055Z,10.27
2022-10-20T05:33:50.407Z,10.98
2022-10-20T05:38:53.731Z,10.40
2022-10-20T05:43:59.941Z,13.32
2022-10-20T05:49:03.285Z,11.85
2022-10-20T05:54:04.809Z,11.77
2022-10-20T05:59:06.444Z,8.57
2022-10-20T06:04:08.074Z,22.52
2022-10-20T06:09:10.999Z,13.05
2022-10-20T06:14:12.533Z,10.63
2022-10-20T06:19:14.040Z,10.02
2022-10-20T06:24:17.674Z,8.77
2022-10-20T06:29:19.243Z,13.27
2022-10-20T06:34:23.656Z,10.48
2022-10-20T06:39:25.298Z,10.25
2022-10-20T06:44:26.778Z,12.80
2022-10-20T06:49:28.307Z,13.02
2022-10-20T06:54:29.957Z,9.07
2022-10-20T06:59:31.625Z,9.80
2022-10-20T07:04:33.197Z,12.77
2022-10-20T07:09:34.769Z,11.07
2022-10-20T07:14:36.338Z,9.05
2022-10-20T07:19:37.828Z,9.35
2022-10-20T07:24:39.428Z,11.55
2022-10-20T07:29:41.021Z,9.40
2022-10-20T07:34:42.635Z,12.77
2022-10-20T07:39:44.173Z,11.60
2022-10-20T07:44:46.124Z,10.32
2022-10-20T07:49:47.739Z,11.30
2022-10-20T07:54:49.251Z,9.73
2022-10-20T07:59:51.026Z,9.98
2022-10-20T08:04:52.563Z,9.55
2022-10-20T08:09:54.545Z,11.15
2022-10-20T08:20:20.392Z,8.18
2022-10-20T08:25:24.087Z,13.05
2022-10-20T08:30:25.757Z,11.85
2022-10-20T08:35:27.601Z,9.57
2022-10-20T08:40:31.235Z,12.93
2022-10-20T08:45:38.224Z,11.93
2022-10-20T08:50:45.439Z,9.23
2022-10-20T08:55:47.227Z,9.57
2022-10-20T09:00:56.210Z,13.45
2022-10-20T09:06:13.273Z,16.58
2022-10-20T09:11:22.473Z,11.13
2022-10-20T09:16:40.647Z,11.35
2022-10-20T09:21:46.056Z,9.27
2022-10-20T09:27:05.510Z,11.43
2022-10-20T09:32:46.645Z,9.82
2022-10-20T09:38:10.599Z,11.70
2022-10-20T09:43:17.750Z,10.88
2022-10-20T09:48:42.510Z,11.25
2022-10-20T09:54:03.285Z,15.30
2022-10-20T09:59:27.022Z,14.43
2022-10-20T10:04:38.334Z,13.13
2022-10-20T10:09:39.850Z,14.23
2022-10-20T10:14:56.003Z,14.60
2022-10-20T10:19:57.686Z,16.10
2022-10-20T10:25:00.669Z,12.88
2022-10-20T10:30:24.169Z,15.50
2022-10-20T10:35:41.581Z,16.23
2022-10-20T10:40:56.917Z,12.65
2022-10-20T10:46:05.206Z,14.43
2022-10-20T10:51:48.455Z,22.35
2022-10-20T10:56:54.523Z,19.60
2022-10-20T11:02:33.679Z,19.37
2022-10-20T11:08:06.404Z,19.27
2022-10-20T11:13:36.843Z,26.38
2022-10-20T11:19:03.373Z,20.52
2022-10-20T11:24:31.038Z,22.40
2022-10-20T11:29:55.820Z,21.02
2022-10-20T11:34:57.335Z,19.13
2022-10-20T11:40:18.208Z,23.27
2022-10-20T11:45:26.833Z,20.63
2022-10-20T11:50:29.562Z,19.92
2022-10-20T11:55:59.073Z,19.00
2022-10-20T12:01:29.829Z,24.08
2022-10-20T12:06:57.390Z,29.02
2022-10-20T12:12:05.395Z,22.77
2022-10-20T12:17:29.517Z,22.38
2022-10-20T12:22:40.798Z,21.17
2022-10-20T12:27:42.418Z,27.33
2022-10-20T12:32:55.805Z,23.48
2022-10-20T12:38:00.268Z,26.50
2022-10-20T12:43:01.957Z,29.25
2022-10-20T12:48:07.026Z,22.95
2022-10-20T12:53:13.567Z,23.48
2022-10-20T12:58:18.032Z,25.73
2022-10-20T13:03:49.369Z,23.73
2022-10-20T13:09:03.231Z,23.38
2022-10-20T13:14:37.539Z,24.00
2022-10-20T13:19:47.614Z,17.30
2022-10-20T13:24:50.964Z,21.42
2022-10-20T13:29:53.310Z,19.73
2022-10-20T13:35:03.812Z,24.85
2022-10-20T13:40:26.039Z,22.17
2022-10-20T13:45:51.287Z,24.98
2022-10-20T13:51:04.525Z,23.63
2022-10-20T13:56:07.840Z,26.27
2022-10-20T14:01:12.676Z,27.10
2022-10-20T14:06:36.622Z,23.63
2022-10-20T14:11:39.399Z,18.38
2022-10-20T14:16:56.211Z,20.52
2022-10-20T14:27:03.371Z,18.00
2022-10-20T14:32:06.565Z,23.55
2022-10-20T14:37:24.585Z,21.33
2022-10-20T14:42:30.403Z,24.17
2022-10-20T14:47:40.647Z,19.30
2022-10-20T14:52:42.692Z,20.98
2022-10-20T14:57:44.724Z,20.13
2022-10-20T15:02:46.437Z,25.42
2022-10-20T15:07:48.155Z,24.20
2022-10-20T15:12:52.387Z,21.98
2022-10-20T15:18:13.428Z,22.25
2022-10-20T15:23:16.629Z,23.80
2022-10-20T15:28:29.975Z,21.42
2022-10-20T15:33:31.702Z,25.10
2022-10-20T15:38:33.263Z,25.60
2022-10-20T15:43:34.771Z,21.63
2022-10-20T15:48:36.338Z,26.27
2022-10-20T15:53:37.842Z,23.92
2022-10-20T15:58:39.995Z,30.17
2022-10-20T16:03:41.685Z,25.05
2022-10-20T16:08:46.150Z,23.83
2022-10-20T16:13:48.687Z,30.00
2022-10-20T16:18:50.207Z,30.15
2022-10-20T16:23:51.804Z,29.75
2022-10-20T16:28:53.443Z,28.70
2022-10-20T16:33:54.973Z,36.25
2022-10-20T16:38:57.112Z,34.20
2022-10-20T16:44:00.951Z,36.53
2022-10-20T16:49:03.123Z,32.75
2022-10-20T16:54:04.714Z,32.05
2022-10-20T16:59:06.269Z,32.55
2022-10-20T17:04:07.856Z,33.90
2022-10-20T17:09:09.456Z,30.40
2022-10-20T17:14:11.068Z,31.45
2022-10-20T17:19:12.588Z,33.90
2022-10-20T17:24:14.260Z,31.70
2022-10-20T17:29:15.858Z,28.42
2022-10-20T17:34:17.461Z,31.38
2022-10-20T17:39:19.059Z,33.08
2022-10-20T17:44:20.627Z,28.15
2022-10-20T17:49:22.221Z,34.08
2022-10-20T17:54:23.865Z,35.80
2022-10-20T17:59:25.475Z,40.90
2022-10-20T18:04:27.064Z,35.67
2022-10-20T18:09:28.707Z,30.40
2022-10-20T18:14:30.388Z,34.15
2022-10-20T18:19:31.939Z,34.60
2022-10-20T18:24:33.528Z,27.35
2022-10-20T18:29:35.105Z,35.50
2022-10-20T18:34:36.705Z,32.13
2022-10-20T18:39:38.233Z,26.77
2022-10-20T18:44:39.808Z,30.88
2022-10-20T18:49:41.380Z,33.03
2022-10-20T18:54:42.992Z,32.42
2022-10-20T18:59:44.557Z,31.27
2022-10-20T19:04:46.183Z,32.33
2022-10-20T19:09:49.188Z,28.10
2022-10-20T19:14:53.755Z,33.97
2022-10-20T19:19:55.301Z,33.10
2022-10-20T19:24:56.841Z,31.60
2022-10-20T19:29:58.463Z,34.55
2022-10-20T19:35:00.015Z,31.05
2022-10-20T19:40:01.701Z,26.70
2022-10-20T19:45:04.220Z,34.15
2022-10-20T19:50:06.060Z,29.17
2022-10-20T19:55:07.818Z,33.50
2022-10-20T20:00:09.931Z,36.38
2022-10-20T20:05:11.486Z,37.85
2022-10-20T20:10:13.095Z,31.75
2022-10-20T20:15:14.667Z,29.15
2022-10-20T20:20:16.306Z,33.05
2022-10-20T20:25:17.814Z,29.45
2022-10-20T20:30:19.360Z,32.75
2022-10-20T20:35:20.986Z,34.33
2022-10-20T20:40:22.865Z,34.70
2022-10-20T20:45:24.378Z,35.28
2022-10-20T20:50:25.848Z,37.67
2022-10-20T20:55:27.393Z,31.10
2022-10-20T21:00:28.935Z,34.55
2022-10-20T21:05:30.465Z,31.67
2022-10-20T21:10:32.118Z,32.90
2022-10-20T21:15:33.751Z,38.08
2022-10-20T21:20:35.518Z,35.70
2022-10-20T21:25:37.028Z,32.05
2022-10-20T21:30:40.108Z,36.92
2022-10-20T21:35:41.639Z,41.58
2022-10-20T21:40:43.170Z,37.60
2022-10-20T21:45:44.690Z,36.75
2022-10-20T21:50:46.186Z,32.85
2022-10-20T21:55:47.718Z,40.20
2022-10-20T22:00:49.279Z,32.50
2022-10-20T22:05:51.672Z,36.22
2022-10-20T22:10:56.221Z,33.83
2022-10-20T22:15:57.920Z,36.53
2022-10-20T22:21:11.200Z,31.55
2022-10-20T22:26:15.136Z,30.70
2022-10-20T22:31:18.099Z,30.08
2022-10-20T22:36:20.754Z,30.40
2022-10-20T22:41:22.532Z,27.77
2022-10-20T22:46:24.091Z,25.90
2022-10-20T22:51:25.669Z,29.13
2022-10-20T22:56:27.149Z,27.42
2022-10-20T23:01:29.047Z,22.33
2022-10-20T23:06:30.647Z,24.85
2022-10-20T23:11:32.253Z,25.33
2022-10-20T23:16:33.751Z,24.10
2022-10-20T23:21:35.254Z,26.40
2022-10-20T23:26:36.736Z,22.92
2022-10-20T23:31:38.392Z,25.77
2022-10-20T23:36:39.910Z,26.83
2022-10-20T23:41:41.528Z,23.10
2022-10-20T23:46:43.013Z,24.73
2022-10-20T23:51:44.478Z,25.15
2022-10-20T23:56:45.998Z,20.27
